createdAt,value
2018-08-23T00:00:39.121Z,11.67
2018-08-23T00:03:15.068Z,9.27
2018-08-23T00:05:49.603Z,7.40
2018-08-23T00:08:18.293Z,9.20
2018-08-23T00:10:47.617Z,12.00
2018-08-23T00:13:16.293Z,13.63
2018-08-23T00:15:44.942Z,6.83
2018-08-23T00:18:13.640Z,5.57
2018-08-23T00:20:42.256Z,7.67
2018-08-23T00:23:10.940Z,8.83
2018-08-23T00:25:39.787Z,13.80
2018-08-23T00:28:08.856Z,6.70
2018-08-23T00:30:37.922Z,9.27
2018-08-23T00:33:06.910Z,11.57
2018-08-23T00:35:36.740Z,7.20
2018-08-23T00:38:06.244Z,10.43
2018-08-23T00:40:39.900Z,7.93
2018-08-23T00:43:09.619Z,7.70
2018-08-23T00:45:38.289Z,9.27
2018-08-23T00:48:06.986Z,8.63
2018-08-23T00:50:53.011Z,11.97
2018-08-23T00:53:21.680Z,9.40
2018-08-23T00:56:02.532Z,9.50
2018-08-23T00:58:31.195Z,8.13
2018-08-23T01:01:02.804Z,11.80
2018-08-23T01:03:31.797Z,7.43
2018-08-23T01:06:00.471Z,9.47
2018-08-23T01:08:33.644Z,6.23
2018-08-23T01:11:03.195Z,8.40
2018-08-23T01:13:31.879Z,7.50
2018-08-23T01:16:00.547Z,8.43
2018-08-23T01:18:29.214Z,8.67
2018-08-23T01:20:57.864Z,10.93
2018-08-23T01:23:26.511Z,4.30
2018-08-23T01:25:55.201Z,9.07
2018-08-23T01:28:23.883Z,5.47
2018-08-23T01:30:52.575Z,7.93
2018-08-23T01:33:22.142Z,10.07
2018-08-23T01:35:51.742Z,5.73
2018-08-23T01:38:20.393Z,7.90
2018-08-23T01:40:51.304Z,3.53
2018-08-23T01:43:19.963Z,5.87
2018-08-23T01:45:48.599Z,2.40
2018-08-23T01:48:17.274Z,5.67
2018-08-23T01:50:45.917Z,5.23
2018-08-23T01:53:14.642Z,3.47
2018-08-23T01:55:43.394Z,4.47
2018-08-23T01:58:12.840Z,4.53
2018-08-23T02:00:41.496Z,3.93
2018-08-23T02:03:10.168Z,3.67
2018-08-23T02:05:42.862Z,4.50
2018-08-23T02:08:11.524Z,4.00
2018-08-23T02:10:40.192Z,3.53
2018-08-23T02:13:10.469Z,3.23
2018-08-23T02:15:44.682Z,4.77
2018-08-23T02:18:13.348Z,5.77
2018-08-23T02:20:41.980Z,8.50
2018-08-23T02:23:10.652Z,6.97
2018-08-23T02:25:39.398Z,6.87
2018-08-23T02:28:12.121Z,4.77
2018-08-23T02:30:50.769Z,2.40
2018-08-23T02:33:19.469Z,4.17
2018-08-23T02:35:58.478Z,5.00
2018-08-23T02:38:28.496Z,7.30
2018-08-23T02:40:57.298Z,3.20
2018-08-23T02:43:25.949Z,8.73
2018-08-23T02:45:55.153Z,2.53
2018-08-23T02:48:24.509Z,6.73
2018-08-23T02:50:53.711Z,9.90
2018-08-23T02:53:33.919Z,4.07
2018-08-23T02:56:05.550Z,4.10
2018-08-23T02:58:40.083Z,14.17
2018-08-23T03:01:08.752Z,2.83
2018-08-23T03:03:37.401Z,4.60
2018-08-23T03:06:06.048Z,7.20
2018-08-23T03:08:42.217Z,2.83
2018-08-23T03:11:10.950Z,3.33
2018-08-23T03:13:44.165Z,4.00
2018-08-23T03:16:13.041Z,5.47
2018-08-23T03:18:41.738Z,5.37
2018-08-23T03:21:10.418Z,4.00
2018-08-23T03:23:39.078Z,4.87
2018-08-23T03:26:07.762Z,3.30
2018-08-23T03:28:36.423Z,4.00
2018-08-23T03:31:05.100Z,6.47
2018-08-23T03:33:34.508Z,8.03
2018-08-23T03:36:03.270Z,6.10
2018-08-23T03:38:31.958Z,6.07
2018-08-23T03:41:00.636Z,5.80
2018-08-23T03:43:29.300Z,6.40
2018-08-23T03:45:58.274Z,8.03
2018-08-23T03:48:26.970Z,4.27
2018-08-23T03:50:55.652Z,4.37
2018-08-23T03:53:38.772Z,6.47
2018-08-23T03:56:08.049Z,6.30
2018-08-23T03:58:36.708Z,4.13
2018-08-23T04:01:07.722Z,8.30
2018-08-23T04:03:38.169Z,7.13
2018-08-23T04:06:21.871Z,4.80
2018-08-23T04:08:50.732Z,6.83
2018-08-23T04:11:19.605Z,10.90
2018-08-23T04:13:49.129Z,6.37
2018-08-23T04:16:27.433Z,3.03
2018-08-23T04:18:56.651Z,6.87
2018-08-23T04:21:25.714Z,4.03
2018-08-23T04:23:54.347Z,4.47
2018-08-23T04:26:23.610Z,6.23
2018-08-23T04:28:52.288Z,6.90
2018-08-23T04:31:21.025Z,5.40
2018-08-23T04:33:49.712Z,4.43
2018-08-23T04:36:27.357Z,6.50
2018-08-23T04:39:01.275Z,4.63
2018-08-23T04:41:30.977Z,4.93
2018-08-23T04:44:03.485Z,6.40
2018-08-23T04:46:32.273Z,6.47
2018-08-23T04:49:02.709Z,9.63
2018-08-23T04:51:31.667Z,10.33
2018-08-23T04:54:00.316Z,8.77
2018-08-23T04:56:28.987Z,5.80
2018-08-23T04:58:57.783Z,6.20
2018-08-23T05:01:26.448Z,7.97
2018-08-23T05:03:55.141Z,5.70
2018-08-23T05:06:23.808Z,11.00
2018-08-23T05:08:52.470Z,8.83
2018-08-23T05:11:21.205Z,5.83
2018-08-23T05:13:49.886Z,6.33
2018-08-23T05:16:18.836Z,7.57
2018-08-23T05:18:47.576Z,4.63
2018-08-23T05:21:16.336Z,6.27
2018-08-23T05:23:45.006Z,5.33
2018-08-23T05:26:19.006Z,4.73
2018-08-23T05:29:00.326Z,7.13
2018-08-23T05:31:31.222Z,9.50
2018-08-23T05:34:01.966Z,11.03
2018-08-23T05:36:30.687Z,6.10
2018-08-23T05:39:00.138Z,4.53
2018-08-23T05:41:28.966Z,7.70
2018-08-23T05:44:10.152Z,5.47
2018-08-23T05:46:43.894Z,8.23
2018-08-23T05:49:12.642Z,5.30
2018-08-23T05:51:42.432Z,4.63
2018-08-23T05:54:11.114Z,5.60
2018-08-23T05:56:39.762Z,9.87
2018-08-23T05:59:13.288Z,8.43
2018-08-23T06:01:42.574Z,5.90
2018-08-23T06:04:11.564Z,8.03
2018-08-23T06:06:40.594Z,4.70
2018-08-23T06:09:14.560Z,9.10
2018-08-23T06:11:43.592Z,8.70
2018-08-23T06:14:12.993Z,7.30
2018-08-23T06:16:46.672Z,7.33
2018-08-23T06:19:15.425Z,6.80
2018-08-23T06:21:44.089Z,4.97
2018-08-23T06:24:12.755Z,4.57
2018-08-23T06:26:47.770Z,5.43
2018-08-23T06:29:23.921Z,4.67
2018-08-23T06:32:05.499Z,4.87
2018-08-23T06:34:36.821Z,7.90
2018-08-23T06:37:05.497Z,4.90
2018-08-23T06:39:34.257Z,7.07
2018-08-23T06:42:03.645Z,8.40
2018-08-23T06:44:41.498Z,6.63
2018-08-23T06:47:11.855Z,7.90
2018-08-23T06:49:41.476Z,7.20
2018-08-23T06:52:12.322Z,7.90
2018-08-23T06:54:41.423Z,6.23
2018-08-23T06:57:10.523Z,6.47
2018-08-23T06:59:39.656Z,6.23
2018-08-23T07:02:08.713Z,8.37
2018-08-23T07:04:37.495Z,8.27
2018-08-23T07:07:06.156Z,5.47
2018-08-23T07:09:42.370Z,6.07
2018-08-23T07:12:16.354Z,7.27
2018-08-23T07:14:46.144Z,10.53
2018-08-23T07:17:20.368Z,5.93
2018-08-23T07:19:49.660Z,10.60
2018-08-23T07:22:26.334Z,6.27
2018-08-23T07:24:56.572Z,7.90
2018-08-23T07:27:25.303Z,8.03
2018-08-23T07:29:55.695Z,4.00
2018-08-23T07:32:26.587Z,8.27
2018-08-23T07:35:04.985Z,7.30
2018-08-23T07:37:34.848Z,7.13
2018-08-23T07:40:08.976Z,6.27
2018-08-23T07:42:38.474Z,6.63
2018-08-23T07:45:07.864Z,12.60
2018-08-23T07:47:40.200Z,4.97
2018-08-23T07:50:08.898Z,8.57
2018-08-23T07:52:38.181Z,6.03
2018-08-23T07:55:07.309Z,7.50
2018-08-23T07:57:36.704Z,12.23
2018-08-23T08:00:15.400Z,6.40
2018-08-23T08:02:44.097Z,6.00
2018-08-23T08:05:12.761Z,5.87
2018-08-23T08:07:41.468Z,4.10
2018-08-23T08:10:14.369Z,6.17
2018-08-23T08:12:47.995Z,3.93
2018-08-23T08:15:22.471Z,5.17
2018-08-23T08:18:04.584Z,9.43
2018-08-23T08:20:32.769Z,8.80
2018-08-23T08:23:01.025Z,5.93
2018-08-23T08:25:29.219Z,6.37
2018-08-23T08:27:57.461Z,5.10
2018-08-23T08:30:38.161Z,3.97
2018-08-23T08:33:16.368Z,5.03
2018-08-23T08:35:55.003Z,13.20
2018-08-23T08:38:24.159Z,6.37
2018-08-23T08:40:52.891Z,3.93
2018-08-23T08:43:21.167Z,8.57
2018-08-23T08:45:53.642Z,4.73
2018-08-23T08:48:27.490Z,8.07
2018-08-23T08:51:13.302Z,8.07
2018-08-23T08:53:42.302Z,7.13
2018-08-23T08:56:11.112Z,9.77
2018-08-23T08:58:40.629Z,6.93
2018-08-23T09:01:09.268Z,8.33
2018-08-23T09:03:38.578Z,9.40
2018-08-23T09:06:08.684Z,7.40
2018-08-23T09:08:38.176Z,11.00
2018-08-23T09:11:07.232Z,7.87
2018-08-23T09:13:41.330Z,3.83
2018-08-23T09:16:11.245Z,5.27
2018-08-23T09:18:42.746Z,7.23
2018-08-23T09:21:11.488Z,6.60
2018-08-23T09:23:40.252Z,7.10
2018-08-23T09:26:08.433Z,4.07
2018-08-23T09:28:42.809Z,4.10
2018-08-23T09:31:16.999Z,14.23
2018-08-23T09:33:45.244Z,9.07
2018-08-23T09:36:13.393Z,4.10
2018-08-23T09:38:41.593Z,5.00
2018-08-23T09:41:09.781Z,6.20
2018-08-23T09:43:37.965Z,5.93
2018-08-23T09:46:06.365Z,7.20
2018-08-23T09:48:34.602Z,6.40
2018-08-23T09:51:16.378Z,6.80
2018-08-23T09:53:44.568Z,5.53
2018-08-23T09:56:19.266Z,6.93
2018-08-23T09:58:49.403Z,3.90
2018-08-23T10:01:22.891Z,7.70
2018-08-23T10:03:57.026Z,10.70
2018-08-23T10:06:29.513Z,5.53
2018-08-23T10:09:13.533Z,4.58
2018-08-23T10:11:47.307Z,5.20
2018-08-23T10:14:17.926Z,4.83
2018-08-23T10:16:51.524Z,4.37
2018-08-23T10:20:25.787Z,8.13
2018-08-23T10:23:01.801Z,4.37
2018-08-23T10:25:41.211Z,7.90
2018-08-23T10:28:10.825Z,6.15
2018-08-23T10:30:39.097Z,5.12
2018-08-23T10:33:07.820Z,5.08
2018-08-23T10:35:37.064Z,7.47
2018-08-23T10:38:06.406Z,4.58
2018-08-23T10:40:35.141Z,5.72
2018-08-23T10:43:03.905Z,4.30
2018-08-23T10:45:32.581Z,7.40
2018-08-23T10:48:06.641Z,7.00
2018-08-23T10:50:35.338Z,4.87
2018-08-23T10:53:04.299Z,10.05
2018-08-23T10:55:33.097Z,5.55
2018-08-23T10:58:01.913Z,6.12
2018-08-23T11:00:30.597Z,4.17
2018-08-23T11:02:59.269Z,6.42
2018-08-23T11:05:27.978Z,4.20
2018-08-23T11:08:02.222Z,4.17
2018-08-23T11:10:36.525Z,4.87
2018-08-23T11:13:10.652Z,5.25
2018-08-23T11:15:39.400Z,5.12
2018-08-23T11:18:13.667Z,4.05
2018-08-23T11:20:44.949Z,4.30
2018-08-23T11:23:16.104Z,4.50
2018-08-23T11:25:44.775Z,6.62
2018-08-23T11:28:20.651Z,3.85
2018-08-23T11:30:49.751Z,4.95
2018-08-23T11:33:18.528Z,4.50
2018-08-23T11:35:47.230Z,7.17
2018-08-23T11:38:16.034Z,9.95
2018-08-23T11:40:44.798Z,5.08
2018-08-23T11:43:13.464Z,7.12
2018-08-23T11:45:42.132Z,4.28
2018-08-23T11:48:10.801Z,5.00
2018-08-23T11:50:39.501Z,6.30
2018-08-23T11:53:08.190Z,5.45
2018-08-23T11:55:36.887Z,7.55
2018-08-23T11:58:05.644Z,4.40
2018-08-23T12:00:34.286Z,7.70
2018-08-23T12:03:02.978Z,6.35
2018-08-23T12:05:31.671Z,7.65
2018-08-23T12:08:00.425Z,6.12
2018-08-23T12:10:29.208Z,5.42
2018-08-23T12:12:57.873Z,6.28
2018-08-23T12:15:31.214Z,7.53
2018-08-23T12:18:00.174Z,4.97
2018-08-23T12:20:28.858Z,5.62
2018-08-23T12:22:57.573Z,6.40
2018-08-23T12:25:26.257Z,5.17
2018-08-23T12:27:59.041Z,5.08
2018-08-23T12:30:27.741Z,6.50
2018-08-23T12:32:56.504Z,5.30
2018-08-23T12:35:25.805Z,10.08
2018-08-23T12:38:01.617Z,5.62
2018-08-23T12:40:36.721Z,8.55
2018-08-23T12:43:09.367Z,5.97
2018-08-23T12:45:40.222Z,8.45
2018-08-23T12:48:10.109Z,6.42
2018-08-23T12:50:38.917Z,7.75
2018-08-23T12:53:07.750Z,5.17
2018-08-23T12:55:36.492Z,5.50
2018-08-23T12:58:09.384Z,7.58
2018-08-23T13:00:38.456Z,6.17
2018-08-23T13:03:07.671Z,7.75
2018-08-23T13:05:36.755Z,9.38
2018-08-23T13:08:05.744Z,14.75
2018-08-23T13:10:34.835Z,8.65
2018-08-23T13:13:03.512Z,5.42
2018-08-23T13:15:32.500Z,6.37
2018-08-23T13:18:01.248Z,10.15
2018-08-23T13:20:29.933Z,5.65
2018-08-23T13:22:58.610Z,6.12
2018-08-23T13:25:27.290Z,5.80
2018-08-23T13:27:56.114Z,7.37
2018-08-23T13:30:24.892Z,5.17
2018-08-23T13:32:53.560Z,6.67
2018-08-23T13:35:22.334Z,7.62
2018-08-23T13:37:50.976Z,8.98
2018-08-23T13:40:20.248Z,7.78
2018-08-23T13:42:49.496Z,8.93
2018-08-23T13:45:18.496Z,7.33
2018-08-23T13:47:47.296Z,6.00
2018-08-23T13:50:15.981Z,12.00
2018-08-23T13:52:44.780Z,10.32
2018-08-23T13:55:13.497Z,5.92
2018-08-23T13:57:42.168Z,5.72
2018-08-23T14:00:17.076Z,5.00
2018-08-23T14:02:45.856Z,5.83
2018-08-23T14:05:14.473Z,5.58
2018-08-23T14:07:43.198Z,5.03
2018-08-23T14:10:11.818Z,6.25
2018-08-23T14:12:46.984Z,5.20
2018-08-23T14:15:21.093Z,5.40
2018-08-23T14:17:49.773Z,5.85
2018-08-23T14:20:18.469Z,5.33
2018-08-23T14:22:47.201Z,7.67
2018-08-23T14:25:15.863Z,5.58
2018-08-23T14:27:44.547Z,7.10
2018-08-23T14:30:13.247Z,5.65
2018-08-23T14:32:41.969Z,8.35
2018-08-23T14:35:10.657Z,5.72
2018-08-23T14:37:39.408Z,5.45
2018-08-23T14:40:08.218Z,11.45
2018-08-23T14:42:36.868Z,5.25
2018-08-23T14:45:05.773Z,6.72
2018-08-23T14:48:37.668Z,6.00
2018-08-23T14:51:06.293Z,5.47
2018-08-23T14:53:35.052Z,6.17
2018-08-23T14:56:09.034Z,10.93
2018-08-23T14:58:38.790Z,5.17
2018-08-23T15:01:07.514Z,9.75
2018-08-23T15:03:36.203Z,15.28
2018-08-23T15:06:04.874Z,6.97
2018-08-23T15:08:33.548Z,15.13
2018-08-23T15:11:02.235Z,7.65
2018-08-23T15:13:30.960Z,6.80
2018-08-23T15:15:59.634Z,5.90
2018-08-23T15:18:28.346Z,5.95
2018-08-23T15:20:57.161Z,6.35
2018-08-23T15:23:25.742Z,7.53
2018-08-23T15:25:54.457Z,6.90
2018-08-23T15:28:23.122Z,9.10
2018-08-23T15:30:51.804Z,6.08
2018-08-23T15:33:20.507Z,7.67
2018-08-23T15:35:49.198Z,6.25
2018-08-23T15:38:17.921Z,8.23
2018-08-23T15:40:46.626Z,6.33
2018-08-23T15:43:15.344Z,7.62
2018-08-23T15:45:44.002Z,7.30
2018-08-23T15:48:12.704Z,5.55
2018-08-23T15:50:41.376Z,5.97
2018-08-23T15:53:10.118Z,8.63
2018-08-23T15:55:38.983Z,8.68
2018-08-23T15:58:07.521Z,6.62
2018-08-23T16:00:37.995Z,8.58
2018-08-23T16:03:07.247Z,9.00
2018-08-23T16:05:36.337Z,7.17
2018-08-23T16:08:05.630Z,11.90
2018-08-23T16:10:34.323Z,10.70
2018-08-23T16:13:03.081Z,14.73
2018-08-23T16:15:32.347Z,10.72
2018-08-23T16:18:06.349Z,10.08
2018-08-23T16:20:40.511Z,11.03
2018-08-23T16:23:09.202Z,14.93
2018-08-23T16:25:42.859Z,14.13
2018-08-23T16:28:11.869Z,13.08
2018-08-23T16:30:41.925Z,11.83
2018-08-23T16:33:11.160Z,14.60
2018-08-23T16:35:40.320Z,10.50
2018-08-23T16:38:09.117Z,10.60
2018-08-23T16:40:37.780Z,7.83
2018-08-23T16:43:06.484Z,9.25
2018-08-23T16:45:35.177Z,6.83
2018-08-23T16:48:03.899Z,11.12
2018-08-23T16:50:32.589Z,12.03
2018-08-23T16:53:01.280Z,8.10
2018-08-23T16:55:29.953Z,8.18
2018-08-23T16:58:00.317Z,10.20
2018-08-23T17:00:29.231Z,12.58
2018-08-23T17:02:57.901Z,8.73
2018-08-23T17:05:26.610Z,10.13
2018-08-23T17:07:55.304Z,7.33
2018-08-23T17:10:23.996Z,9.75
2018-08-23T17:12:52.842Z,6.95
2018-08-23T17:16:24.712Z,9.98
2018-08-23T17:18:55.057Z,8.63
2018-08-23T17:21:24.055Z,8.45
2018-08-23T17:23:52.742Z,9.18
2018-08-23T17:26:21.424Z,10.82
2018-08-23T17:28:50.143Z,9.33
2018-08-23T17:31:18.800Z,9.58
2018-08-23T17:33:47.622Z,10.13
2018-08-23T17:36:16.308Z,9.85
2018-08-23T17:38:45.050Z,9.43
2018-08-23T17:41:13.750Z,22.37
2018-08-23T17:43:42.428Z,13.43
2018-08-23T17:46:11.118Z,7.73
2018-08-23T17:48:39.871Z,10.17
2018-08-23T17:51:08.568Z,11.80
2018-08-23T17:53:37.288Z,8.87
2018-08-23T17:56:06.133Z,9.15
2018-08-23T17:58:35.013Z,32.30
2018-08-23T18:01:03.765Z,31.03
2018-08-23T18:03:32.432Z,32.10
2018-08-23T18:06:01.125Z,24.10
2018-08-23T18:08:29.911Z,14.43
2018-08-23T18:10:58.601Z,14.13
2018-08-23T18:13:27.300Z,15.67
2018-08-23T18:16:01.524Z,12.67
2018-08-23T18:18:30.219Z,19.60
2018-08-23T18:20:58.909Z,19.43
2018-08-23T18:23:27.591Z,16.33
2018-08-23T18:25:56.240Z,15.23
2018-08-23T18:28:25.001Z,14.20
2018-08-23T18:30:53.736Z,21.93
2018-08-23T18:33:22.469Z,25.60
2018-08-23T18:35:51.135Z,65.70
2018-08-23T18:38:19.838Z,71.83
2018-08-23T18:40:48.515Z,90.17
2018-08-23T18:43:17.201Z,97.93
2018-08-23T18:45:45.871Z,102.13
2018-08-23T18:48:14.591Z,93.17
2018-08-23T18:50:43.279Z,100.67
2018-08-23T18:53:11.985Z,97.27
2018-08-23T18:55:40.665Z,72.53
2018-08-23T18:58:09.357Z,56.50
2018-08-23T19:00:38.024Z,38.73
2018-08-23T19:03:06.714Z,32.03
2018-08-23T19:05:35.481Z,23.63
2018-08-23T19:08:04.104Z,11.97
2018-08-23T19:10:32.863Z,12.23
2018-08-23T19:13:02.606Z,10.20
2018-08-23T19:16:35.535Z,7.93
2018-08-23T19:19:04.279Z,8.17
2018-08-23T19:21:32.870Z,7.17
2018-08-23T19:24:01.600Z,11.13
2018-08-23T19:26:30.410Z,5.73
2018-08-23T19:28:59.070Z,6.47
2018-08-23T19:31:27.951Z,4.60
2018-08-23T19:34:03.182Z,13.60
2018-08-23T19:36:31.856Z,5.97
2018-08-23T19:39:00.552Z,10.73
2018-08-23T19:41:29.273Z,7.90
2018-08-23T19:43:57.981Z,8.43
2018-08-23T19:46:32.144Z,9.10
2018-08-23T19:49:06.499Z,9.07
2018-08-23T19:51:35.156Z,6.93
2018-08-23T19:54:03.830Z,8.57
2018-08-23T19:56:32.502Z,5.20
2018-08-23T19:59:01.336Z,8.87
2018-08-23T20:01:30.017Z,9.50
2018-08-23T20:03:58.738Z,7.67
2018-08-23T20:06:27.452Z,7.63
2018-08-23T20:08:56.141Z,8.73
2018-08-23T20:11:24.820Z,7.93
2018-08-23T20:13:53.503Z,8.53
2018-08-23T20:16:22.187Z,5.40
2018-08-23T20:18:50.923Z,7.70
2018-08-23T20:21:19.576Z,7.70
2018-08-23T20:23:48.261Z,7.00
2018-08-23T20:26:16.951Z,11.57
2018-08-23T20:28:45.650Z,9.10
2018-08-23T20:31:14.327Z,6.47
2018-08-23T20:33:43.074Z,8.60
2018-08-23T20:36:11.733Z,6.50
2018-08-23T20:38:40.385Z,14.10
2018-08-23T20:41:09.041Z,9.20
2018-08-23T20:43:37.743Z,11.60
2018-08-23T20:46:06.427Z,12.30
2018-08-23T20:48:41.857Z,17.07
2018-08-23T20:51:10.545Z,21.13
2018-08-23T20:53:39.248Z,19.77
2018-08-23T20:56:07.950Z,16.57
2018-08-23T20:58:36.598Z,19.40
2018-08-23T21:01:05.308Z,22.97
2018-08-23T21:03:34.038Z,21.87
2018-08-23T21:06:02.718Z,22.47
2018-08-23T21:08:31.436Z,27.23
2018-08-23T21:11:00.134Z,31.57
2018-08-23T21:13:28.818Z,27.70
2018-08-23T21:15:57.504Z,29.67
2018-08-23T21:18:26.196Z,35.60
2018-08-23T21:20:54.876Z,30.03
2018-08-23T21:23:23.572Z,35.00
2018-08-23T21:25:52.280Z,30.97
2018-08-23T21:28:20.975Z,31.47
2018-08-23T21:30:49.712Z,30.77
2018-08-23T21:33:18.422Z,35.00
2018-08-23T21:35:47.107Z,30.23
2018-08-23T21:38:15.778Z,29.70
2018-08-23T21:40:44.472Z,29.90
2018-08-23T21:43:13.180Z,26.57
2018-08-23T21:45:41.868Z,24.70
2018-08-23T21:48:10.590Z,31.57
2018-08-23T21:50:39.296Z,29.07
2018-08-23T21:53:08.192Z,32.10
2018-08-23T21:55:38.954Z,37.83
2018-08-23T21:58:09.331Z,25.97
2018-08-23T22:00:43.352Z,27.57
2018-08-23T22:03:12.876Z,31.57
2018-08-23T22:05:42.142Z,29.60
2018-08-23T22:08:11.242Z,27.53
2018-08-23T22:10:39.935Z,27.43
2018-08-23T22:13:08.612Z,30.27
2018-08-23T22:15:42.920Z,28.20
2018-08-23T22:18:11.643Z,33.30
2018-08-23T22:20:40.345Z,25.33
2018-08-23T22:23:09.045Z,24.60
2018-08-23T22:25:38.217Z,32.03
2018-08-23T22:28:07.268Z,25.83
2018-08-23T22:30:36.097Z,30.40
2018-08-23T22:33:04.780Z,29.60
2018-08-23T22:35:33.438Z,27.50
2018-08-23T22:38:02.158Z,30.20
2018-08-23T22:40:30.823Z,28.30
2018-08-23T22:42:59.541Z,35.07
2018-08-23T22:45:28.403Z,35.00
2018-08-23T22:47:57.043Z,31.13
2018-08-23T22:50:25.761Z,32.87
2018-08-23T22:52:54.437Z,31.30
2018-08-23T22:55:23.110Z,29.53
2018-08-23T22:57:52.009Z,30.80
2018-08-23T23:00:24.939Z,28.33
2018-08-23T23:02:53.635Z,29.43
2018-08-23T23:05:22.409Z,31.87
2018-08-23T23:07:50.979Z,33.63
2018-08-23T23:10:19.669Z,34.50
2018-08-23T23:12:48.375Z,30.80
2018-08-23T23:15:22.442Z,32.07
2018-08-23T23:17:51.113Z,33.23
2018-08-23T23:20:19.813Z,37.67
2018-08-23T23:22:48.627Z,35.73
2018-08-23T23:25:17.297Z,35.60
2018-08-23T23:27:45.999Z,38.00
2018-08-23T23:30:14.669Z,43.83
2018-08-23T23:32:43.357Z,39.73
2018-08-23T23:35:12.005Z,47.27
2018-08-23T23:37:40.665Z,45.37
2018-08-23T23:40:09.563Z,42.87
2018-08-23T23:42:38.937Z,49.63
2018-08-23T23:45:08.304Z,48.67
2018-08-23T23:47:37.111Z,49.10
2018-08-23T23:50:06.165Z,45.93
2018-08-23T23:52:34.821Z,43.97
2018-08-23T23:55:03.561Z,48.33
2018-08-23T23:57:32.258Z,46.93
